Terminal Aerodrome Forecast
Issued by NWS Albuquerque, NM

Home | Current Version | Previous Version | Text Only | Print | Product List | Glossary On
Versions: 1 2 3 4 5 6 7 8 9 10 11 12 13 14 15 16 17
000
FTUS45 KABQ 030150 AAB
TAFABQ
TAF AMD
KABQ 030150Z 0302/0324 09011G18KT P6SM VCSH SCT070 BKN120
      TEMPO 0302/0304 VRB20G35KT 6SM -TSRA BKN060CB
     FM030400 05006KT P6SM VCSH BKN090
     FM030600 VRB05KT P6SM FEW090 BKN150
     FM031900 16007KT P6SM FEW080
     FM032200 16011KT P6SM SCT080 SCT150=

USA.gov is the U.S. government's official web portal to all federal, state and local government web resources and services.